High Tide — D5AA7 — position and weather

sailwx.info

Track history (hours):
 
Tides and Currents Weather Stations Pressure Air Temp Water Temp Dewpoint Dewpoint Depression Visibility Wind Speed Wind Dir Waves Ship Positions

High Tide

Last reported at 2015-Jun-06 22:34 UTC. Time now 2015-Jun-30 03:27 UTC.
Position S 26°48' E 153°11'.
Warning: this ship's position is 23 days out of date.

Length 183 m; draft 8 m.

Type: Tanker. MMSI: 636015337.

Date/timePositionNaut miles runAvg speedWind from/ knotsBaromVisibWave heightAir tempDewpointWater temp
2015-Jun-06 22:34S 26°48' E 153°11'1312.8
2015-Jun-06 21:34S 26°60' E 153°14'1211.6
2015-Jun-06 20:34S 27°11' E 153°18'1414.1
2015-Jun-06 19:34S 27°23' E 153°10'3 3.4
2015-Jun-06 18:33S 27°26' E 153°08'2 0.1
2015-Jun-06 02:33S 27°24' E 153°09'5 5.0
2015-Jun-06 01:34S 27°20' E 153°12'1010.3
2015-Jun-06 00:34S 27°13' E 153°20'1313.5
2015-Jun-05 23:34S 27°01' E 153°15'1312.8
2015-Jun-05 22:34S 26°48' E 153°11'7 6.8
2015-Jun-05 21:33S 26°43' E 153°15'2 1.6
2015-Jun-05 20:33S 26°43' E 153°17'0 0.0
2015-Jun-05 19:33S 26°43' E 153°17'0 0.0
2015-Jun-05 18:33S 26°43' E 153°17'0 0.0
2015-Jun-05 17:33S 26°43' E 153°17'0 0.0
2015-Jun-05 16:33S 26°43' E 153°17'0 0.0
2015-Jun-05 15:33S 26°43' E 153°17'0 0.0
2015-Jun-05 14:33S 26°43' E 153°17'0 0.0
2015-Jun-05 13:33S 26°43' E 153°17'0 0.0
2015-Jun-05 12:33S 26°43' E 153°17'0 0.1
2015-Jun-05 11:33S 26°43' E 153°17'0 0.1
2015-Jun-05 10:33S 26°43' E 153°17'0 0.1
2015-Jun-05 09:33S 26°43' E 153°17'0 0.1
2015-Jun-05 08:33S 26°43' E 153°17'0 0.1
2015-Jun-05 07:33S 26°43' E 153°17'0 0.0
2015-Jun-05 06:27S 26°43' E 153°17'0 0.0
2015-Jun-05 05:30S 26°43' E 153°17'0 0.0
2015-Jun-05 04:33S 26°43' E 153°17'0 0.0
2015-Jun-05 02:12S 26°43' E 153°17'0 0.0
2015-Jun-05 00:12S 26°43' E 153°17'0 0.0
2015-Jun-04 23:33S 26°43' E 153°17'0 0.0
2015-Jun-04 22:27S 26°43' E 153°17'4 4.0
2015-Jun-04 21:33S 26°44' E 153°21'1110.9
2015-Jun-04 20:33S 26°48' E 153°32'1312.5
2015-Jun-04 19:33S 26°53' E 153°45'1312.5
2015-Jun-04 18:33S 27°01' E 153°56'1212.3
2015-Jun-04 17:33S 27°13' E 153°57'1212.1
2015-Jun-04 16:33S 27°25' E 153°58'1311.8
2015-Jun-04 15:29S 27°38' E 153°59'1312.6
2015-Jun-04 14:29S 27°50' E 154°00'28913.2
2015-Jun-03 16:33S 32°33' E 152°49'1312.6
2015-Jun-03 15:33S 32°43' E 152°41'1312.7
2015-Jun-03 14:33S 32°53' E 152°31'1212.0
2015-Jun-03 13:33S 33°02' E 152°22'1312.8
2015-Jun-03 12:33S 33°12' E 152°12'  
Track history (hours):
 
Tides and Currents Weather Stations Pressure Air Temp Water Temp Dewpoint Dewpoint Depression Visibility Wind Speed Wind Dir Waves Ship Positions

High Tide

Last reported at 2015-Jun-06 22:34 UTC. Time now 2015-Jun-30 03:27 UTC.
Position S 26°48' E 153°11'.
Warning: this ship's position is 23 days out of date.

Length 183 m; draft 8 m.

Type: Tanker. MMSI: 636015337.

Date/timePositionNaut miles runAvg speedWind from/ knotsBaromVisibWave heightAir tempDewpointWater temp
2015-Jun-06 22:34S 26°48' E 153°11'1312.8
2015-Jun-06 21:34S 26°60' E 153°14'1211.6
2015-Jun-06 20:34S 27°11' E 153°18'1414.1
2015-Jun-06 19:34S 27°23' E 153°10'3 3.4
2015-Jun-06 18:33S 27°26' E 153°08'2 0.1
2015-Jun-06 02:33S 27°24' E 153°09'5 5.0
2015-Jun-06 01:34S 27°20' E 153°12'1010.3
2015-Jun-06 00:34S 27°13' E 153°20'1313.5
2015-Jun-05 23:34S 27°01' E 153°15'1312.8
2015-Jun-05 22:34S 26°48' E 153°11'7 6.8
2015-Jun-05 21:33S 26°43' E 153°15'2 1.6
2015-Jun-05 20:33S 26°43' E 153°17'0 0.0
2015-Jun-05 19:33S 26°43' E 153°17'0 0.0
2015-Jun-05 18:33S 26°43' E 153°17'0 0.0
2015-Jun-05 17:33S 26°43' E 153°17'0 0.0
2015-Jun-05 16:33S 26°43' E 153°17'0 0.0
2015-Jun-05 15:33S 26°43' E 153°17'0 0.0
2015-Jun-05 14:33S 26°43' E 153°17'0 0.0
2015-Jun-05 13:33S 26°43' E 153°17'0 0.0
2015-Jun-05 12:33S 26°43' E 153°17'0 0.1
2015-Jun-05 11:33S 26°43' E 153°17'0 0.1
2015-Jun-05 10:33S 26°43' E 153°17'0 0.1
2015-Jun-05 09:33S 26°43' E 153°17'0 0.1
2015-Jun-05 08:33S 26°43' E 153°17'0 0.1
2015-Jun-05 07:33S 26°43' E 153°17'0 0.0
2015-Jun-05 06:27S 26°43' E 153°17'0 0.0
2015-Jun-05 05:30S 26°43' E 153°17'0 0.0
2015-Jun-05 04:33S 26°43' E 153°17'0 0.0
2015-Jun-05 02:12S 26°43' E 153°17'0 0.0
2015-Jun-05 00:12S 26°43' E 153°17'0 0.0
2015-Jun-04 23:33S 26°43' E 153°17'0 0.0
2015-Jun-04 22:27S 26°43' E 153°17'4 4.0
2015-Jun-04 21:33S 26°44' E 153°21'1110.9
2015-Jun-04 20:33S 26°48' E 153°32'1312.5
2015-Jun-04 19:33S 26°53' E 153°45'1312.5
2015-Jun-04 18:33S 27°01' E 153°56'1212.3
2015-Jun-04 17:33S 27°13' E 153°57'1212.1
2015-Jun-04 16:33S 27°25' E 153°58'1311.8
2015-Jun-04 15:29S 27°38' E 153°59'1312.6
2015-Jun-04 14:29S 27°50' E 154°00'28913.2
2015-Jun-03 16:33S 32°33' E 152°49'1312.6
2015-Jun-03 15:33S 32°43' E 152°41'1312.7
2015-Jun-03 14:33S 32°53' E 152°31'1212.0
2015-Jun-03 13:33S 33°02' E 152°22'1312.8
2015-Jun-03 12:33S 33°12' E 152°12'  

Dump ship's entire track history